createdAt,value
2022-12-04T00:01:15.633Z,18.70
2022-12-04T00:06:55.509Z,20.63
2022-12-04T00:09:41.203Z,19.70
2022-12-04T00:15:25.318Z,19.63
2022-12-04T00:20:52.392Z,20.63
2022-12-04T00:26:33.497Z,19.53
2022-12-04T00:29:22.155Z,20.37
2022-12-04T00:34:59.715Z,20.37
2022-12-04T00:40:35.625Z,20.60
2022-12-04T00:48:48.215Z,21.23
2022-12-04T00:54:18.211Z,20.47
2022-12-04T00:59:47.969Z,21.17
2022-12-04T01:02:56.006Z,21.27
2022-12-04T01:08:35.104Z,21.70
2022-12-04T01:14:02.708Z,21.27
2022-12-04T01:19:40.098Z,21.23
2022-12-04T01:22:28.548Z,22.20
2022-12-04T01:28:04.523Z,22.63
2022-12-04T01:31:04.261Z,21.30
2022-12-04T01:36:57.300Z,23.77
2022-12-04T01:42:30.287Z,23.27
2022-12-04T01:45:39.503Z,23.43
2022-12-04T01:51:18.538Z,23.73
2022-12-04T01:56:54.360Z,23.90
2022-12-04T02:02:26.670Z,22.40
2022-12-04T02:05:17.509Z,23.73
2022-12-04T02:11:05.979Z,23.43
2022-12-04T02:16:45.704Z,23.70
2022-12-04T02:23:14.200Z,21.33
2022-12-04T02:31:37.132Z,23.17
2022-12-04T02:37:10.344Z,23.87
2022-12-04T02:45:39.579Z,23.53
2022-12-04T02:54:02.215Z,22.93
2022-12-04T02:59:39.640Z,23.17
2022-12-04T03:08:29.536Z,21.80
2022-12-04T03:14:07.872Z,22.27
2022-12-04T03:19:58.272Z,23.40
2022-12-04T03:28:20.019Z,23.37
2022-12-04T03:33:59.742Z,22.10
2022-12-04T03:36:52.229Z,24.07
2022-12-04T03:45:23.039Z,22.57
2022-12-04T03:51:17.917Z,21.70
2022-12-04T03:57:01.036Z,24.27
2022-12-04T04:02:42.215Z,23.10
2022-12-04T04:08:27.159Z,22.40
2022-12-04T04:14:16.242Z,21.70
2022-12-04T04:20:19.000Z,22.00
2022-12-04T04:25:55.763Z,20.50
2022-12-04T04:28:47.308Z,20.97
2022-12-04T04:34:27.824Z,21.83
2022-12-04T04:40:00.081Z,20.70
2022-12-04T04:42:50.407Z,21.73
2022-12-04T04:51:12.482Z,20.87
2022-12-04T04:54:04.327Z,22.30
2022-12-04T04:59:41.464Z,20.37
2022-12-04T05:05:11.529Z,20.87
2022-12-04T05:10:48.441Z,20.37
2022-12-04T05:13:39.255Z,19.57
2022-12-04T05:19:36.307Z,20.60
2022-12-04T05:25:07.334Z,20.43
2022-12-04T05:30:43.243Z,21.43
2022-12-04T05:33:31.754Z,20.97
2022-12-04T05:39:01.266Z,20.10
2022-12-04T05:41:49.594Z,20.83
2022-12-04T05:44:37.849Z,21.50
2022-12-04T05:50:09.889Z,20.77
2022-12-04T05:52:58.332Z,21.50
2022-12-04T05:55:48.417Z,21.80
2022-12-04T06:01:26.797Z,21.03
2022-12-04T06:04:16.068Z,20.60
2022-12-04T06:07:05.623Z,20.07
2022-12-04T06:12:40.454Z,21.53
2022-12-04T06:18:09.441Z,21.53
2022-12-04T06:23:39.913Z,20.40
2022-12-04T06:26:28.958Z,21.67
2022-12-04T06:32:01.901Z,21.90
2022-12-04T06:37:54.286Z,20.63
2022-12-04T06:43:31.553Z,19.83
2022-12-04T06:49:03.785Z,19.63
2022-12-04T06:54:40.437Z,19.67
2022-12-04T07:00:12.276Z,19.67
2022-12-04T07:05:47.269Z,19.00
2022-12-04T07:11:22.170Z,19.70
2022-12-04T07:16:59.194Z,18.80
2022-12-04T07:22:34.663Z,20.90
2022-12-04T07:28:04.107Z,19.37
2022-12-04T07:30:52.332Z,18.00
2022-12-04T07:36:21.469Z,17.40
2022-12-04T07:44:28.203Z,18.37
2022-12-04T07:50:09.401Z,18.60
2022-12-04T07:55:44.612Z,18.33
2022-12-04T07:58:32.869Z,17.87
2022-12-04T08:01:23.338Z,17.10
2022-12-04T08:04:19.909Z,17.97
2022-12-04T08:09:56.707Z,18.40
2022-12-04T08:15:32.264Z,16.37
2022-12-04T08:21:07.749Z,16.63
2022-12-04T08:26:49.832Z,17.50
2022-12-04T08:32:21.060Z,19.57
2022-12-04T08:35:10.154Z,19.17
2022-12-04T08:37:58.538Z,19.33
2022-12-04T08:40:47.875Z,19.90
2022-12-04T08:43:38.682Z,19.50
2022-12-04T08:49:16.579Z,19.70
2022-12-04T08:54:52.863Z,20.10
2022-12-04T08:57:41.114Z,19.90
2022-12-04T09:00:31.464Z,20.00
2022-12-04T09:03:26.104Z,19.60
2022-12-04T09:11:57.140Z,21.03
2022-12-04T09:17:33.453Z,19.53
2022-12-04T09:23:06.170Z,19.63
2022-12-04T09:28:41.259Z,22.07
2022-12-04T09:34:20.100Z,20.30
2022-12-04T09:37:10.769Z,20.13
2022-12-04T09:42:44.834Z,20.00
2022-12-04T09:48:23.880Z,19.50
2022-12-04T09:54:20.835Z,19.07
2022-12-04T10:00:19.396Z,19.87
2022-12-04T10:03:10.611Z,19.97
2022-12-04T10:06:02.764Z,20.90
2022-12-04T10:08:56.474Z,19.30
2022-12-04T10:17:56.533Z,19.83
2022-12-04T10:24:11.424Z,19.03
2022-12-04T10:27:02.470Z,20.77
2022-12-04T10:32:34.005Z,20.27
2022-12-04T10:38:06.834Z,21.03
2022-12-04T10:49:15.071Z,18.13
2022-12-04T10:54:52.546Z,18.07
2022-12-04T11:00:33.906Z,15.93
2022-12-04T11:03:28.554Z,15.90
2022-12-04T11:06:17.740Z,15.40
2022-12-04T11:14:46.758Z,15.40
2022-12-04T11:20:34.710Z,16.67
2022-12-04T11:23:26.505Z,14.93
2022-12-04T11:26:15.665Z,15.57
2022-12-04T11:31:54.779Z,17.23
2022-12-04T11:37:23.948Z,19.50
2022-12-04T11:40:19.982Z,18.40
2022-12-04T11:43:14.201Z,18.40
2022-12-04T11:48:47.854Z,17.53
2022-12-04T11:54:37.107Z,16.20
2022-12-04T12:03:13.183Z,17.43
2022-12-04T12:09:08.968Z,15.30
2022-12-04T12:14:46.263Z,15.40
2022-12-04T12:20:21.630Z,15.87
2022-12-04T12:23:26.633Z,16.00
2022-12-04T12:29:11.946Z,16.20
2022-12-04T12:35:00.466Z,17.07
2022-12-04T12:43:25.743Z,16.57
2022-12-04T12:49:12.882Z,15.60
2022-12-04T12:54:52.301Z,15.53
2022-12-04T13:00:32.964Z,15.30
2022-12-04T13:06:14.798Z,15.63
2022-12-04T13:14:30.987Z,17.03
2022-12-04T13:17:24.814Z,17.63
2022-12-04T13:20:18.070Z,18.00
2022-12-04T13:28:22.368Z,18.37
2022-12-04T13:37:04.415Z,21.50
2022-12-04T13:40:37.844Z,22.47
2022-12-04T13:46:30.119Z,21.20
2022-12-04T13:49:27.074Z,21.27
2022-12-04T13:52:25.114Z,21.40
2022-12-04T13:55:32.803Z,20.53
2022-12-04T13:58:30.369Z,19.33
2022-12-04T14:04:26.554Z,19.57
2022-12-04T14:10:09.766Z,17.27
2022-12-04T14:16:14.404Z,18.83
2022-12-04T14:21:49.435Z,17.27
2022-12-04T14:27:37.462Z,17.37
2022-12-04T14:33:32.255Z,17.13
2022-12-04T14:45:40.840Z,16.77
2022-12-04T14:51:38.893Z,25.40
2022-12-04T15:00:33.480Z,16.27
2022-12-04T15:06:36.534Z,16.77
2022-12-04T15:15:20.845Z,17.87
2022-12-04T15:21:01.736Z,18.93
2022-12-04T15:26:40.973Z,18.80
2022-12-04T15:32:17.632Z,19.83
2022-12-04T15:37:47.015Z,18.03
2022-12-04T15:40:35.937Z,18.43
2022-12-04T15:46:13.423Z,18.03
2022-12-04T15:55:00.488Z,18.57
2022-12-04T16:00:39.741Z,20.50
2022-12-04T16:06:21.604Z,18.97
2022-12-04T16:09:19.161Z,17.60
2022-12-04T16:12:18.896Z,19.47
2022-12-04T16:18:03.832Z,19.23
2022-12-04T16:20:52.153Z,17.97
2022-12-04T16:26:29.425Z,18.27
2022-12-04T16:29:17.763Z,17.20
2022-12-04T16:32:07.047Z,16.90
2022-12-04T16:37:42.923Z,16.87
2022-12-04T16:43:18.831Z,17.40
2022-12-04T16:46:07.513Z,16.83
2022-12-04T16:51:45.923Z,17.20
2022-12-04T16:57:25.161Z,15.63
2022-12-04T17:03:04.815Z,15.30
2022-12-04T17:08:39.472Z,15.53
2022-12-04T17:14:12.455Z,15.80
2022-12-04T17:19:48.922Z,14.30
2022-12-04T17:25:21.433Z,14.07
2022-12-04T17:30:56.154Z,15.27
2022-12-04T17:36:36.115Z,16.27
2022-12-04T17:42:10.790Z,14.87
2022-12-04T17:44:59.962Z,15.53
2022-12-04T17:50:34.671Z,16.00
2022-12-04T17:56:34.016Z,14.17
2022-12-04T17:59:22.371Z,15.03
2022-12-04T18:04:51.589Z,14.40
2022-12-04T18:10:22.350Z,14.43
2022-12-04T18:16:06.595Z,15.03
2022-12-04T18:18:55.514Z,16.37
2022-12-04T18:24:29.700Z,14.73
2022-12-04T18:30:03.339Z,13.40
2022-12-04T18:35:44.724Z,13.87
2022-12-04T18:38:33.460Z,13.33
2022-12-04T18:44:08.389Z,13.70
2022-12-04T18:56:04.866Z,13.53
2022-12-04T19:01:53.915Z,14.03
2022-12-04T19:07:43.113Z,12.80
2022-12-04T19:10:33.468Z,13.20
2022-12-04T19:16:03.767Z,12.90
2022-12-04T19:24:30.464Z,12.27
2022-12-04T19:30:03.623Z,11.87
2022-12-04T19:35:32.819Z,11.93
2022-12-04T19:41:26.716Z,12.90
2022-12-04T19:46:54.447Z,12.93
2022-12-04T19:52:25.956Z,12.23
2022-12-04T19:58:02.624Z,12.70
2022-12-04T20:04:03.660Z,11.40
2022-12-04T20:09:51.942Z,11.50
2022-12-04T20:18:00.117Z,11.43
2022-12-04T20:23:59.020Z,11.20
2022-12-04T20:26:52.732Z,12.33
2022-12-04T20:32:21.357Z,12.47
2022-12-04T20:35:11.215Z,10.97
2022-12-04T20:40:45.115Z,11.83
2022-12-04T20:43:35.319Z,11.13
2022-12-04T20:46:27.347Z,11.73
2022-12-04T20:49:22.042Z,12.13
2022-12-04T20:54:52.554Z,12.17
2022-12-04T21:00:20.040Z,11.47
2022-12-04T21:03:08.388Z,11.40
2022-12-04T21:08:54.704Z,10.57
2022-12-04T21:14:49.048Z,11.33
2022-12-04T21:20:16.785Z,10.77
2022-12-04T21:23:06.978Z,11.97
2022-12-04T21:25:57.658Z,10.63
2022-12-04T21:31:35.109Z,11.97
2022-12-04T21:37:07.944Z,11.80
2022-12-04T21:42:54.608Z,12.03
2022-12-04T21:48:32.844Z,12.53
2022-12-04T21:51:48.616Z,11.83
2022-12-04T21:57:01.123Z,12.20
2022-12-04T22:02:35.561Z,11.43
2022-12-04T22:08:09.503Z,11.37
2022-12-04T22:10:58.565Z,11.97
2022-12-04T22:16:43.279Z,11.23
2022-12-04T22:22:18.147Z,11.40
2022-12-04T22:25:08.124Z,12.47
2022-12-04T22:30:49.387Z,11.27
2022-12-04T22:36:21.091Z,10.63
2022-12-04T22:41:59.652Z,12.27
2022-12-04T22:44:48.630Z,11.63
2022-12-04T22:50:31.224Z,13.23
2022-12-04T22:53:28.359Z,12.80
2022-12-04T22:58:58.077Z,13.03
2022-12-04T23:04:29.934Z,12.57
2022-12-04T23:07:18.224Z,12.17
2022-12-04T23:10:08.719Z,12.27
2022-12-04T23:15:44.122Z,12.67
2022-12-04T23:21:22.288Z,11.47
2022-12-04T23:24:12.249Z,11.47
2022-12-04T23:27:00.909Z,11.07
2022-12-04T23:29:53.526Z,11.17
2022-12-04T23:35:27.720Z,10.73
2022-12-04T23:41:06.314Z,10.60
2022-12-04T23:46:43.579Z,10.37
2022-12-04T23:49:32.081Z,11.63
2022-12-04T23:57:50.603Z,10.83
